sensor_id;sensor_type;location;lat;lon;timestamp;P1;P2;P0
47741;PMS5003;33504;52.066;6.096;2022-12-18T00:02:27;119;100;
47741;PMS5003;33504;52.066;6.096;2022-12-18T00:04:54;103;91;
47741;PMS5003;33504;52.066;6.096;2022-12-18T00:07:27;107;93;
47741;PMS5003;33504;52.066;6.096;2022-12-18T00:09:59;107;94;
47741;PMS5003;33504;52.066;6.096;2022-12-18T00:12:31;103;90;
47741;PMS5003;33504;52.066;6.096;2022-12-18T00:15:09;106;87;
47741;PMS5003;33504;52.066;6.096;2022-12-18T00:17:41;114;97;
47741;PMS5003;33504;52.066;6.096;2022-12-18T00:20:13;101;80;
47741;PMS5003;33504;52.066;6.096;2022-12-18T00:22:51;100;86;
47741;PMS5003;33504;52.066;6.096;2022-12-18T00:25:23;107;94;
47741;PMS5003;33504;52.066;6.096;2022-12-18T00:27:55;108;94;
47741;PMS5003;33504;52.066;6.096;2022-12-18T00:30:27;99;81;
47741;PMS5003;33504;52.066;6.096;2022-12-18T00:33:04;100;93;
47741;PMS5003;33504;52.066;6.096;2022-12-18T00:35:41;105;94;
47741;PMS5003;33504;52.066;6.096;2022-12-18T00:38:13;106;88;
47741;PMS5003;33504;52.066;6.096;2022-12-18T00:40:51;91;80;
47741;PMS5003;33504;52.066;6.096;2022-12-18T00:43:28;104;91;
47741;PMS5003;33504;52.066;6.096;2022-12-18T00:45:55;101;83;
47741;PMS5003;33504;52.066;6.096;2022-12-18T00:48:27;103;89;
47741;PMS5003;33504;52.066;6.096;2022-12-18T00:51:04;109;96;
47741;PMS5003;33504;52.066;6.096;2022-12-18T00:53:41;99;86;
47741;PMS5003;33504;52.066;6.096;2022-12-18T00:56:13;98;84;
47741;PMS5003;33504;52.066;6.096;2022-12-18T00:58:45;101;91;
47741;PMS5003;33504;52.066;6.096;2022-12-18T01:01:17;97;84;
47741;PMS5003;33504;52.066;6.096;2022-12-18T01:03:55;99;84;
47741;PMS5003;33504;52.066;6.096;2022-12-18T01:06:28;101;83;
47741;PMS5003;33504;52.066;6.096;2022-12-18T01:09:00;102;92;
47741;PMS5003;33504;52.066;6.096;2022-12-18T01:11:29;104;89;
47741;PMS5003;33504;52.066;6.096;2022-12-18T01:13:59;108;94;
47741;PMS5003;33504;52.066;6.096;2022-12-18T01:16:37;105;85;
47741;PMS5003;33504;52.066;6.096;2022-12-18T01:19:04;109;92;
47741;PMS5003;33504;52.066;6.096;2022-12-18T01:21:32;106;86;
47741;PMS5003;33504;52.066;6.096;2022-12-18T01:24:05;122;97;
47741;PMS5003;33504;52.066;6.096;2022-12-18T01:26:42;115;94;
47741;PMS5003;33504;52.066;6.096;2022-12-18T01:29:19;111;96;
47741;PMS5003;33504;52.066;6.096;2022-12-18T01:31:56;108;83;
47741;PMS5003;33504;52.066;6.096;2022-12-18T01:34:34;100;89;
47741;PMS5003;33504;52.066;6.096;2022-12-18T01:37:07;95;83;
47741;PMS5003;33504;52.066;6.096;2022-12-18T01:39:40;106;88;
47741;PMS5003;33504;52.066;6.096;2022-12-18T01:42:09;104;92;
47741;PMS5003;33504;52.066;6.096;2022-12-18T01:44:53;101;82;
47741;PMS5003;33504;52.066;6.096;2022-12-18T01:47:23;95;87;
47741;PMS5003;33504;52.066;6.096;2022-12-18T01:49:59;101;82;
47741;PMS5003;33504;52.066;6.096;2022-12-18T01:52:40;105;90;
47741;PMS5003;33504;52.066;6.096;2022-12-18T01:55:19;102;93;
47741;PMS5003;33504;52.066;6.096;2022-12-18T01:57:59;104;88;
47741;PMS5003;33504;52.066;6.096;2022-12-18T02:00:31;104;87;
47741;PMS5003;33504;52.066;6.096;2022-12-18T02:03:04;103;85;
47741;PMS5003;33504;52.066;6.096;2022-12-18T02:05:35;107;84;
47741;PMS5003;33504;52.066;6.096;2022-12-18T02:08:09;113;94;
47741;PMS5003;33504;52.066;6.096;2022-12-18T02:10:48;89;84;
47741;PMS5003;33504;52.066;6.096;2022-12-18T02:13:31;98;82;
47741;PMS5003;33504;52.066;6.096;2022-12-18T02:16:06;110;86;
47741;PMS5003;33504;52.066;6.096;2022-12-18T02:18:49;101;87;
47741;PMS5003;33504;52.066;6.096;2022-12-18T02:21:32;104;84;
47741;PMS5003;33504;52.066;6.096;2022-12-18T02:24:16;90;86;
47741;PMS5003;33504;52.066;6.096;2022-12-18T02:26:59;92;80;
47741;PMS5003;33504;52.066;6.096;2022-12-18T02:29:39;98;83;
47741;PMS5003;33504;52.066;6.096;2022-12-18T02:32:15;100;88;
47741;PMS5003;33504;52.066;6.096;2022-12-18T02:34:49;96;82;
47741;PMS5003;33504;52.066;6.096;2022-12-18T02:37:24;93;83;
47741;PMS5003;33504;52.066;6.096;2022-12-18T02:39:54;95;86;
47741;PMS5003;33504;52.066;6.096;2022-12-18T02:42:30;105;81;
47741;PMS5003;33504;52.066;6.096;2022-12-18T02:44:58;99;86;
47741;PMS5003;33504;52.066;6.096;2022-12-18T02:47:32;95;86;
47741;PMS5003;33504;52.066;6.096;2022-12-18T02:50:07;94;84;
47741;PMS5003;33504;52.066;6.096;2022-12-18T02:52:42;92;81;
47741;PMS5003;33504;52.066;6.096;2022-12-18T02:55:28;113;96;
47741;PMS5003;33504;52.066;6.096;2022-12-18T02:58:14;106;92;
47741;PMS5003;33504;52.066;6.096;2022-12-18T03:00:58;104;93;
47741;PMS5003;33504;52.066;6.096;2022-12-18T03:03:44;92;82;
47741;PMS5003;33504;52.066;6.096;2022-12-18T03:06:27;103;95;
47741;PMS5003;33504;52.066;6.096;2022-12-18T03:09:09;97;90;
47741;PMS5003;33504;52.066;6.096;2022-12-18T03:11:41;96;86;
47741;PMS5003;33504;52.066;6.096;2022-12-18T03:14:20;89;80;
47741;PMS5003;33504;52.066;6.096;2022-12-18T03:16:57;97;91;
47741;PMS5003;33504;52.066;6.096;2022-12-18T03:19:29;105;85;
47741;PMS5003;33504;52.066;6.096;2022-12-18T03:22:00;91;84;
47741;PMS5003;33504;52.066;6.096;2022-12-18T03:24:39;94;80;
47741;PMS5003;33504;52.066;6.096;2022-12-18T03:27:13;96;91;
47741;PMS5003;33504;52.066;6.096;2022-12-18T03:29:50;88;79;
47741;PMS5003;33504;52.066;6.096;2022-12-18T03:32:27;96;88;
47741;PMS5003;33504;52.066;6.096;2022-12-18T03:35:10;106;85;
47741;PMS5003;33504;52.066;6.096;2022-12-18T03:37:50;89;79;
47741;PMS5003;33504;52.066;6.096;2022-12-18T03:40:29;93;82;
47741;PMS5003;33504;52.066;6.096;2022-12-18T03:43:16;94;78;
47741;PMS5003;33504;52.066;6.096;2022-12-18T03:45:48;86;78;
47741;PMS5003;33504;52.066;6.096;2022-12-18T03:48:24;101;89;
47741;PMS5003;33504;52.066;6.096;2022-12-18T03:51:09;104;84;
47741;PMS5003;33504;52.066;6.096;2022-12-18T03:53:49;88;77;
47741;PMS5003;33504;52.066;6.096;2022-12-18T03:56:31;89;81;
47741;PMS5003;33504;52.066;6.096;2022-12-18T03:59:13;99;81;
47741;PMS5003;33504;52.066;6.096;2022-12-18T04:01:53;82;70;
47741;PMS5003;33504;52.066;6.096;2022-12-18T04:04:23;84;76;
47741;PMS5003;33504;52.066;6.096;2022-12-18T04:06:52;86;73;
47741;PMS5003;33504;52.066;6.096;2022-12-18T04:09:25;89;76;
47741;PMS5003;33504;52.066;6.096;2022-12-18T04:11:59;87;78;
47741;PMS5003;33504;52.066;6.096;2022-12-18T04:14:32;95;79;
47741;PMS5003;33504;52.066;6.096;2022-12-18T04:17:00;89;79;
47741;PMS5003;33504;52.066;6.096;2022-12-18T04:19:33;92;83;
47741;PMS5003;33504;52.066;6.096;2022-12-18T04:22:11;88;76;
47741;PMS5003;33504;52.066;6.096;2022-12-18T04:24:47;94;85;
47741;PMS5003;33504;52.066;6.096;2022-12-18T04:27:25;87;74;
47741;PMS5003;33504;52.066;6.096;2022-12-18T04:30:02;83;75;
47741;PMS5003;33504;52.066;6.096;2022-12-18T04:32:34;104;86;
47741;PMS5003;33504;52.066;6.096;2022-12-18T04:35:07;103;80;
47741;PMS5003;33504;52.066;6.096;2022-12-18T04:37:44;94;80;
47741;PMS5003;33504;52.066;6.096;2022-12-18T04:40:16;95;77;
47741;PMS5003;33504;52.066;6.096;2022-12-18T04:42:54;80;74;
47741;PMS5003;33504;52.066;6.096;2022-12-18T04:45:26;89;71;
47741;PMS5003;33504;52.066;6.096;2022-12-18T04:47:53;80;71;
47741;PMS5003;33504;52.066;6.096;2022-12-18T04:50:26;89;78;
47741;PMS5003;33504;52.066;6.096;2022-12-18T04:52:54;92;81;
47741;PMS5003;33504;52.066;6.096;2022-12-18T04:55:24;90;79;
47741;PMS5003;33504;52.066;6.096;2022-12-18T04:57:57;96;82;
47741;PMS5003;33504;52.066;6.096;2022-12-18T05:00:34;84;76;
47741;PMS5003;33504;52.066;6.096;2022-12-18T05:03:06;92;81;
47741;PMS5003;33504;52.066;6.096;2022-12-18T05:05:43;84;71;
47741;PMS5003;33504;52.066;6.096;2022-12-18T05:08:15;82;74;
47741;PMS5003;33504;52.066;6.096;2022-12-18T05:10:43;73;68;
47741;PMS5003;33504;52.066;6.096;2022-12-18T05:13:10;81;77;
47741;PMS5003;33504;52.066;6.096;2022-12-18T05:15:42;81;71;
47741;PMS5003;33504;52.066;6.096;2022-12-18T05:18:22;80;66;
47741;PMS5003;33504;52.066;6.096;2022-12-18T05:20:54;74;68;
47741;PMS5003;33504;52.066;6.096;2022-12-18T05:23:26;84;77;
47741;PMS5003;33504;52.066;6.096;2022-12-18T05:26:00;74;65;
47741;PMS5003;33504;52.066;6.096;2022-12-18T05:28:33;78;70;
47741;PMS5003;33504;52.066;6.096;2022-12-18T05:31:11;84;72;
47741;PMS5003;33504;52.066;6.096;2022-12-18T05:33:44;80;70;
47741;PMS5003;33504;52.066;6.096;2022-12-18T05:36:21;68;61;
47741;PMS5003;33504;52.066;6.096;2022-12-18T05:38:52;71;64;
47741;PMS5003;33504;52.066;6.096;2022-12-18T05:41:29;78;68;
47741;PMS5003;33504;52.066;6.096;2022-12-18T05:44:07;59;54;
47741;PMS5003;33504;52.066;6.096;2022-12-18T05:46:44;69;61;
47741;PMS5003;33504;52.066;6.096;2022-12-18T05:49:21;76;67;
47741;PMS5003;33504;52.066;6.096;2022-12-18T05:51:58;71;61;
47741;PMS5003;33504;52.066;6.096;2022-12-18T05:54:35;80;63;
47741;PMS5003;33504;52.066;6.096;2022-12-18T05:57:08;66;57;
47741;PMS5003;33504;52.066;6.096;2022-12-18T05:59:40;71;63;
47741;PMS5003;33504;52.066;6.096;2022-12-18T06:02:08;77;67;
47741;PMS5003;33504;52.066;6.096;2022-12-18T06:04:40;77;67;
47741;PMS5003;33504;52.066;6.096;2022-12-18T06:07:07;79;69;
47741;PMS5003;33504;52.066;6.096;2022-12-18T06:09:44;78;63;
47741;PMS5003;33504;52.066;6.096;2022-12-18T06:12:22;67;63;
47741;PMS5003;33504;52.066;6.096;2022-12-18T06:14:54;76;62;
47741;PMS5003;33504;52.066;6.096;2022-12-18T06:17:32;81;63;
47741;PMS5003;33504;52.066;6.096;2022-12-18T06:20:09;78;68;
47741;PMS5003;33504;52.066;6.096;2022-12-18T06:22:41;81;73;
47741;PMS5003;33504;52.066;6.096;2022-12-18T06:25:09;74;62;
47741;PMS5003;33504;52.066;6.096;2022-12-18T06:27:42;72;64;
47741;PMS5003;33504;52.066;6.096;2022-12-18T06:30:14;72;62;
47741;PMS5003;33504;52.066;6.096;2022-12-18T06:32:51;76;67;
47741;PMS5003;33504;52.066;6.096;2022-12-18T06:35:23;77;70;
47741;PMS5003;33504;52.066;6.096;2022-12-18T06:37:50;75;68;
47741;PMS5003;33504;52.066;6.096;2022-12-18T06:40:17;70;67;
47741;PMS5003;33504;52.066;6.096;2022-12-18T06:42:50;66;60;
47741;PMS5003;33504;52.066;6.096;2022-12-18T06:45:22;71;63;
47741;PMS5003;33504;52.066;6.096;2022-12-18T06:47:54;65;58;
47741;PMS5003;33504;52.066;6.096;2022-12-18T06:50:31;77;65;
47741;PMS5003;33504;52.066;6.096;2022-12-18T06:52:58;80;70;
47741;PMS5003;33504;52.066;6.096;2022-12-18T06:55:26;66;62;
47741;PMS5003;33504;52.066;6.096;2022-12-18T06:58:04;69;60;
47741;PMS5003;33504;52.066;6.096;2022-12-18T07:00:36;67;60;
47741;PMS5003;33504;52.066;6.096;2022-12-18T07:03:03;61;57;
47741;PMS5003;33504;52.066;6.096;2022-12-18T07:05:39;65;57;
47741;PMS5003;33504;52.066;6.096;2022-12-18T07:08:12;61;58;
47741;PMS5003;33504;52.066;6.096;2022-12-18T07:10:44;71;66;
47741;PMS5003;33504;52.066;6.096;2022-12-18T07:13:16;65;57;
47741;PMS5003;33504;52.066;6.096;2022-12-18T07:15:54;70;62;
47741;PMS5003;33504;52.066;6.096;2022-12-18T07:18:35;72;64;
47741;PMS5003;33504;52.066;6.096;2022-12-18T07:21:08;70;65;
47741;PMS5003;33504;52.066;6.096;2022-12-18T07:23:43;122;104;
47741;PMS5003;33504;52.066;6.096;2022-12-18T07:26:20;161;149;
47741;PMS5003;33504;52.066;6.096;2022-12-18T07:28:54;200;174;
47741;PMS5003;33504;52.066;6.096;2022-12-18T07:31:27;193;178;
47741;PMS5003;33504;52.066;6.096;2022-12-18T07:33:59;114;109;
47741;PMS5003;33504;52.066;6.096;2022-12-18T07:36:36;114;105;
47741;PMS5003;33504;52.066;6.096;2022-12-18T07:39:14;95;89;
47741;PMS5003;33504;52.066;6.096;2022-12-18T07:41:41;82;76;
47741;PMS5003;33504;52.066;6.096;2022-12-18T07:44:13;81;71;
47741;PMS5003;33504;52.066;6.096;2022-12-18T07:46:46;63;59;
47741;PMS5003;33504;52.066;6.096;2022-12-18T07:49:18;71;61;
47741;PMS5003;33504;52.066;6.096;2022-12-18T07:51:46;80;71;
47741;PMS5003;33504;52.066;6.096;2022-12-18T07:54:13;81;69;
47741;PMS5003;33504;52.066;6.096;2022-12-18T07:56:45;67;64;
47741;PMS5003;33504;52.066;6.096;2022-12-18T07:59:17;79;68;
47741;PMS5003;33504;52.066;6.096;2022-12-18T08:01:50;74;67;
47741;PMS5003;33504;52.066;6.096;2022-12-18T08:04:27;86;72;
47741;PMS5003;33504;52.066;6.096;2022-12-18T08:07:00;106;91;
47741;PMS5003;33504;52.066;6.096;2022-12-18T08:09:32;142;127;
47741;PMS5003;33504;52.066;6.096;2022-12-18T08:12:01;137;121;
47741;PMS5003;33504;52.066;6.096;2022-12-18T08:14:33;94;89;
47741;PMS5003;33504;52.066;6.096;2022-12-18T08:17:08;97;87;
47741;PMS5003;33504;52.066;6.096;2022-12-18T08:19:45;108;98;
47741;PMS5003;33504;52.066;6.096;2022-12-18T08:22:22;105;90;
47741;PMS5003;33504;52.066;6.096;2022-12-18T08:24:59;99;91;
47741;PMS5003;33504;52.066;6.096;2022-12-18T08:27:32;94;86;
47741;PMS5003;33504;52.066;6.096;2022-12-18T08:30:05;76;69;
47741;PMS5003;33504;52.066;6.096;2022-12-18T08:32:38;72;70;
47741;PMS5003;33504;52.066;6.096;2022-12-18T08:35:11;69;65;
47741;PMS5003;33504;52.066;6.096;2022-12-18T08:37:43;77;72;
47741;PMS5003;33504;52.066;6.096;2022-12-18T08:40:18;75;64;
47741;PMS5003;33504;52.066;6.096;2022-12-18T08:42:50;69;65;
47741;PMS5003;33504;52.066;6.096;2022-12-18T08:45:22;77;68;
47741;PMS5003;33504;52.066;6.096;2022-12-18T08:47:59;71;66;
47741;PMS5003;33504;52.066;6.096;2022-12-18T08:50:37;67;62;
47741;PMS5003;33504;52.066;6.096;2022-12-18T08:53:13;56;54;
47741;PMS5003;33504;52.066;6.096;2022-12-18T08:55:45;52;47;
47741;PMS5003;33504;52.066;6.096;2022-12-18T08:58:18;60;56;
47741;PMS5003;33504;52.066;6.096;2022-12-18T09:00:46;56;48;
47741;PMS5003;33504;52.066;6.096;2022-12-18T09:03:13;49;47;
47741;PMS5003;33504;52.066;6.096;2022-12-18T09:05:42;52;49;
47741;PMS5003;33504;52.066;6.096;2022-12-18T09:08:16;54;50;
47741;PMS5003;33504;52.066;6.096;2022-12-18T09:10:49;55;51;
47741;PMS5003;33504;52.066;6.096;2022-12-18T09:13:27;54;50;
47741;PMS5003;33504;52.066;6.096;2022-12-18T09:16:05;58;53;
47741;PMS5003;33504;52.066;6.096;2022-12-18T09:18:37;44;41;
47741;PMS5003;33504;52.066;6.096;2022-12-18T09:21:11;51;51;
47741;PMS5003;33504;52.066;6.096;2022-12-18T09:23:48;40;38;
47741;PMS5003;33504;52.066;6.096;2022-12-18T09:26:16;48;45;
47741;PMS5003;33504;52.066;6.096;2022-12-18T09:28:49;48;45;
47741;PMS5003;33504;52.066;6.096;2022-12-18T09:31:21;40;37;
47741;PMS5003;33504;52.066;6.096;2022-12-18T09:33:59;48;44;
47741;PMS5003;33504;52.066;6.096;2022-12-18T09:36:36;51;48;
47741;PMS5003;33504;52.066;6.096;2022-12-18T09:39:09;49;45;
47741;PMS5003;33504;52.066;6.096;2022-12-18T09:41:43;44;44;
47741;PMS5003;33504;52.066;6.096;2022-12-18T09:44:19;51;49;
47741;PMS5003;33504;52.066;6.096;2022-12-18T09:47:00;51;44;
47741;PMS5003;33504;52.066;6.096;2022-12-18T09:49:39;45;43;
47741;PMS5003;33504;52.066;6.096;2022-12-18T09:52:16;49;46;
47741;PMS5003;33504;52.066;6.096;2022-12-18T09:54:58;47;45;
47741;PMS5003;33504;52.066;6.096;2022-12-18T09:57:37;47;45;
47741;PMS5003;33504;52.066;6.096;2022-12-18T10:00:20;50;46;
47741;PMS5003;33504;52.066;6.096;2022-12-18T10:02:58;47;47;
47741;PMS5003;33504;52.066;6.096;2022-12-18T10:05:41;53;46;
47741;PMS5003;33504;52.066;6.096;2022-12-18T10:08:34;45;43;
47741;PMS5003;33504;52.066;6.096;2022-12-18T10:11:24;49;46;
47741;PMS5003;33504;52.066;6.096;2022-12-18T10:14:08;53;47;
47741;PMS5003;33504;52.066;6.096;2022-12-18T10:16:56;41;39;
47741;PMS5003;33504;52.066;6.096;2022-12-18T10:19:36;39;35;
47741;PMS5003;33504;52.066;6.096;2022-12-18T10:22:20;46;43;
47741;PMS5003;33504;52.066;6.096;2022-12-18T10:25:12;42;37;
47741;PMS5003;33504;52.066;6.096;2022-12-18T10:27:51;39;39;
47741;PMS5003;33504;52.066;6.096;2022-12-18T10:30:27;40;38;
47741;PMS5003;33504;52.066;6.096;2022-12-18T10:32:58;46;45;
47741;PMS5003;33504;52.066;6.096;2022-12-18T10:35:33;35;33;
47741;PMS5003;33504;52.066;6.096;2022-12-18T10:38:20;50;47;
47741;PMS5003;33504;52.066;6.096;2022-12-18T10:40:59;45;43;
47741;PMS5003;33504;52.066;6.096;2022-12-18T10:43:38;41;37;
47741;PMS5003;33504;52.066;6.096;2022-12-18T10:46:14;42;38;
47741;PMS5003;33504;52.066;6.096;2022-12-18T10:48:49;37;35;
47741;PMS5003;33504;52.066;6.096;2022-12-18T10:51:28;43;43;
47741;PMS5003;33504;52.066;6.096;2022-12-18T10:53:59;49;45;
47741;PMS5003;33504;52.066;6.096;2022-12-18T10:56:35;41;37;
47741;PMS5003;33504;52.066;6.096;2022-12-18T10:59:14;43;41;
47741;PMS5003;33504;52.066;6.096;2022-12-18T11:01:49;44;43;
47741;PMS5003;33504;52.066;6.096;2022-12-18T11:04:28;42;40;
47741;PMS5003;33504;52.066;6.096;2022-12-18T11:07:06;45;43;
47741;PMS5003;33504;52.066;6.096;2022-12-18T11:09:43;55;52;
47741;PMS5003;33504;52.066;6.096;2022-12-18T11:12:32;46;45;
47741;PMS5003;33504;52.066;6.096;2022-12-18T11:15:04;42;41;
47741;PMS5003;33504;52.066;6.096;2022-12-18T11:17:41;53;49;
47741;PMS5003;33504;52.066;6.096;2022-12-18T11:20:19;51;49;
47741;PMS5003;33504;52.066;6.096;2022-12-18T11:23:03;44;42;
47741;PMS5003;33504;52.066;6.096;2022-12-18T11:25:50;49;43;
47741;PMS5003;33504;52.066;6.096;2022-12-18T11:28:36;44;43;
47741;PMS5003;33504;52.066;6.096;2022-12-18T11:31:14;45;43;
47741;PMS5003;33504;52.066;6.096;2022-12-18T11:33:53;44;42;
47741;PMS5003;33504;52.066;6.096;2022-12-18T11:36:32;45;45;
47741;PMS5003;33504;52.066;6.096;2022-12-18T11:39:10;38;38;
47741;PMS5003;33504;52.066;6.096;2022-12-18T11:41:52;42;39;
47741;PMS5003;33504;52.066;6.096;2022-12-18T11:44:38;49;44;
47741;PMS5003;33504;52.066;6.096;2022-12-18T11:47:18;43;39;
47741;PMS5003;33504;52.066;6.096;2022-12-18T11:49:51;41;39;
47741;PMS5003;33504;52.066;6.096;2022-12-18T11:52:31;51;47;
47741;PMS5003;33504;52.066;6.096;2022-12-18T11:55:13;41;37;
47741;PMS5003;33504;52.066;6.096;2022-12-18T11:57:49;49;48;
47741;PMS5003;33504;52.066;6.096;2022-12-18T12:00:33;49;47;
47741;PMS5003;33504;52.066;6.096;2022-12-18T12:03:14;47;40;
47741;PMS5003;33504;52.066;6.096;2022-12-18T12:06:02;42;39;
47741;PMS5003;33504;52.066;6.096;2022-12-18T12:08:49;38;37;
47741;PMS5003;33504;52.066;6.096;2022-12-18T12:11:32;38;34;
47741;PMS5003;33504;52.066;6.096;2022-12-18T12:14:19;49;43;
47741;PMS5003;33504;52.066;6.096;2022-12-18T12:17:07;42;39;
47741;PMS5003;33504;52.066;6.096;2022-12-18T12:19:56;37;37;
47741;PMS5003;33504;52.066;6.096;2022-12-18T12:22:44;40;38;
47741;PMS5003;33504;52.066;6.096;2022-12-18T12:25:27;38;38;
47741;PMS5003;33504;52.066;6.096;2022-12-18T12:28:13;45;41;
47741;PMS5003;33504;52.066;6.096;2022-12-18T12:30:54;48;41;
47741;PMS5003;33504;52.066;6.096;2022-12-18T12:33:38;47;42;
47741;PMS5003;33504;52.066;6.096;2022-12-18T12:36:20;44;41;
47741;PMS5003;33504;52.066;6.096;2022-12-18T12:39:01;51;47;
47741;PMS5003;33504;52.066;6.096;2022-12-18T12:41:40;42;41;
47741;PMS5003;33504;52.066;6.096;2022-12-18T12:44:12;44;44;
47741;PMS5003;33504;52.066;6.096;2022-12-18T12:46:48;43;43;
47741;PMS5003;33504;52.066;6.096;2022-12-18T12:49:25;49;46;
47741;PMS5003;33504;52.066;6.096;2022-12-18T12:52:03;44;42;
47741;PMS5003;33504;52.066;6.096;2022-12-18T12:54:34;41;38;
47741;PMS5003;33504;52.066;6.096;2022-12-18T12:57:08;41;39;
47741;PMS5003;33504;52.066;6.096;2022-12-18T12:59:47;41;40;
47741;PMS5003;33504;52.066;6.096;2022-12-18T13:02:33;45;43;
47741;PMS5003;33504;52.066;6.096;2022-12-18T13:05:18;46;43;
47741;PMS5003;33504;52.066;6.096;2022-12-18T13:07:59;40;36;
47741;PMS5003;33504;52.066;6.096;2022-12-18T13:10:35;42;36;
47741;PMS5003;33504;52.066;6.096;2022-12-18T13:13:09;35;33;
47741;PMS5003;33504;52.066;6.096;2022-12-18T13:15:38;44;43;
47741;PMS5003;33504;52.066;6.096;2022-12-18T13:18:11;43;41;
47741;PMS5003;33504;52.066;6.096;2022-12-18T13:20:47;46;39;
47741;PMS5003;33504;52.066;6.096;2022-12-18T13:23:31;41;39;
47741;PMS5003;33504;52.066;6.096;2022-12-18T13:26:44;42;39;
47741;PMS5003;33504;52.066;6.096;2022-12-18T13:29:54;51;42;
47741;PMS5003;33504;52.066;6.096;2022-12-18T13:32:21;43;40;
47741;PMS5003;33504;52.066;6.096;2022-12-18T13:35:40;39;36;
47741;PMS5003;33504;52.066;6.096;2022-12-18T13:38:20;50;46;
47741;PMS5003;33504;52.066;6.096;2022-12-18T13:40:53;39;34;
47741;PMS5003;33504;52.066;6.096;2022-12-18T13:43:30;44;42;
47741;PMS5003;33504;52.066;6.096;2022-12-18T13:46:23;45;44;
47741;PMS5003;33504;52.066;6.096;2022-12-18T13:49:02;40;34;
47741;PMS5003;33504;52.066;6.096;2022-12-18T13:51:54;46;42;
47741;PMS5003;33504;52.066;6.096;2022-12-18T13:54:29;43;42;
47741;PMS5003;33504;52.066;6.096;2022-12-18T13:57:05;49;46;
47741;PMS5003;33504;52.066;6.096;2022-12-18T14:00:00;41;39;
47741;PMS5003;33504;52.066;6.096;2022-12-18T14:02:51;47;47;
47741;PMS5003;33504;52.066;6.096;2022-12-18T14:05:23;46;42;
47741;PMS5003;33504;52.066;6.096;2022-12-18T14:07:59;56;52;
47741;PMS5003;33504;52.066;6.096;2022-12-18T14:10:34;49;44;
47741;PMS5003;33504;52.066;6.096;2022-12-18T14:13:07;45;44;
47741;PMS5003;33504;52.066;6.096;2022-12-18T14:15:44;47;46;
47741;PMS5003;33504;52.066;6.096;2022-12-18T14:18:20;42;39;
47741;PMS5003;33504;52.066;6.096;2022-12-18T14:21:02;46;45;
47741;PMS5003;33504;52.066;6.096;2022-12-18T14:23:43;43;39;
47741;PMS5003;33504;52.066;6.096;2022-12-18T14:26:20;44;42;
47741;PMS5003;33504;52.066;6.096;2022-12-18T14:28:54;46;43;
47741;PMS5003;33504;52.066;6.096;2022-12-18T14:31:32;43;40;
47741;PMS5003;33504;52.066;6.096;2022-12-18T14:34:00;42;41;
47741;PMS5003;33504;52.066;6.096;2022-12-18T14:36:34;52;48;
47741;PMS5003;33504;52.066;6.096;2022-12-18T14:39:14;55;51;
47741;PMS5003;33504;52.066;6.096;2022-12-18T14:41:49;54;52;
47741;PMS5003;33504;52.066;6.096;2022-12-18T14:44:26;72;66;
47741;PMS5003;33504;52.066;6.096;2022-12-18T14:46:58;67;63;
47741;PMS5003;33504;52.066;6.096;2022-12-18T14:49:35;62;58;
47741;PMS5003;33504;52.066;6.096;2022-12-18T14:52:13;62;56;
47741;PMS5003;33504;52.066;6.096;2022-12-18T14:54:50;64;61;
47741;PMS5003;33504;52.066;6.096;2022-12-18T14:57:23;47;45;
47741;PMS5003;33504;52.066;6.096;2022-12-18T15:00:03;56;52;
47741;PMS5003;33504;52.066;6.096;2022-12-18T15:02:37;55;54;
47741;PMS5003;33504;52.066;6.096;2022-12-18T15:05:17;63;61;
47741;PMS5003;33504;52.066;6.096;2022-12-18T15:07:46;66;63;
47741;PMS5003;33504;52.066;6.096;2022-12-18T15:10:15;56;54;
47741;PMS5003;33504;52.066;6.096;2022-12-18T15:12:50;56;52;
47741;PMS5003;33504;52.066;6.096;2022-12-18T15:15:47;78;71;
47741;PMS5003;33504;52.066;6.096;2022-12-18T15:18:23;74;69;
47741;PMS5003;33504;52.066;6.096;2022-12-18T15:21:07;79;74;
47741;PMS5003;33504;52.066;6.096;2022-12-18T15:23:37;77;71;
47741;PMS5003;33504;52.066;6.096;2022-12-18T15:26:14;66;62;
47741;PMS5003;33504;52.066;6.096;2022-12-18T15:28:53;52;47;
47741;PMS5003;33504;52.066;6.096;2022-12-18T15:31:31;60;57;
47741;PMS5003;33504;52.066;6.096;2022-12-18T15:34:19;64;55;
47741;PMS5003;33504;52.066;6.096;2022-12-18T15:36:52;52;48;
47741;PMS5003;33504;52.066;6.096;2022-12-18T15:39:24;66;63;
47741;PMS5003;33504;52.066;6.096;2022-12-18T15:41:57;86;80;
47741;PMS5003;33504;52.066;6.096;2022-12-18T15:44:29;74;68;
47741;PMS5003;33504;52.066;6.096;2022-12-18T15:47:02;65;59;
47741;PMS5003;33504;52.066;6.096;2022-12-18T15:49:41;73;72;
47741;PMS5003;33504;52.066;6.096;2022-12-18T15:52:13;78;69;
47741;PMS5003;33504;52.066;6.096;2022-12-18T15:54:45;73;69;
47741;PMS5003;33504;52.066;6.096;2022-12-18T15:57:17;64;60;
47741;PMS5003;33504;52.066;6.096;2022-12-18T15:59:55;67;64;
47741;PMS5003;33504;52.066;6.096;2022-12-18T16:02:33;72;63;
47741;PMS5003;33504;52.066;6.096;2022-12-18T16:05:08;63;58;
47741;PMS5003;33504;52.066;6.096;2022-12-18T16:07:48;67;63;
47741;PMS5003;33504;52.066;6.096;2022-12-18T16:10:15;75;71;
47741;PMS5003;33504;52.066;6.096;2022-12-18T16:12:43;61;57;
47741;PMS5003;33504;52.066;6.096;2022-12-18T16:15:21;65;63;
47741;PMS5003;33504;52.066;6.096;2022-12-18T16:17:58;58;57;
47741;PMS5003;33504;52.066;6.096;2022-12-18T16:20:35;59;56;
47741;PMS5003;33504;52.066;6.096;2022-12-18T16:23:12;63;59;
47741;PMS5003;33504;52.066;6.096;2022-12-18T16:25:45;62;55;
47741;PMS5003;33504;52.066;6.096;2022-12-18T16:28:23;53;50;
47741;PMS5003;33504;52.066;6.096;2022-12-18T16:30:55;59;55;
47741;PMS5003;33504;52.066;6.096;2022-12-18T16:33:28;65;62;
47741;PMS5003;33504;52.066;6.096;2022-12-18T16:35:55;66;56;
47741;PMS5003;33504;52.066;6.096;2022-12-18T16:38:27;61;54;
47741;PMS5003;33504;52.066;6.096;2022-12-18T16:41:00;56;52;
47741;PMS5003;33504;52.066;6.096;2022-12-18T16:43:28;69;65;
47741;PMS5003;33504;52.066;6.096;2022-12-18T16:46:01;61;57;
47741;PMS5003;33504;52.066;6.096;2022-12-18T16:48:38;54;50;
47741;PMS5003;33504;52.066;6.096;2022-12-18T16:51:10;56;53;
47741;PMS5003;33504;52.066;6.096;2022-12-18T16:53:47;56;50;
47741;PMS5003;33504;52.066;6.096;2022-12-18T16:56:14;60;54;
47741;PMS5003;33504;52.066;6.096;2022-12-18T16:58:49;64;60;
47741;PMS5003;33504;52.066;6.096;2022-12-18T17:01:22;102;90;
47741;PMS5003;33504;52.066;6.096;2022-12-18T17:03:56;93;84;
47741;PMS5003;33504;52.066;6.096;2022-12-18T17:06:31;70;63;
47741;PMS5003;33504;52.066;6.096;2022-12-18T17:09:06;65;64;
47741;PMS5003;33504;52.066;6.096;2022-12-18T17:11:41;67;65;
47741;PMS5003;33504;52.066;6.096;2022-12-18T17:14:15;67;59;